Time;durP1;ratioP1;P1;durP2;ratioP2;P2;SDS_P1;SDS_P2;PMS_P1;PMS_P2;Temp;Humidity;BMP_temperature;BMP_pressure;BME280_temperature;BME280_humidity;BME280_pressure;Samples;Min_cycle;Max_cycle;Signal;HPM_P1;HPM_P2
2023/06/04 00:01:09;;;;;;;7.53;2.15;;;;;;;13.50;78.10;101852.75;5114679;28;20037;-66
2023/06/04 00:03:35;;;;;;;5.97;2.00;;;;;;;13.46;78.42;101848.75;5102455;28;20056;-66
2023/06/04 00:06:00;;;;;;;6.28;2.20;;;;;;;13.40;78.55;101844.94;5127659;28;20038;-66
2023/06/04 00:08:26;;;;;;;7.47;2.10;;;;;;;13.38;78.78;101844.31;5114929;28;20054;-66
2023/06/04 00:10:51;;;;;;;6.80;2.20;;;;;;;13.26;79.08;101829.63;5115816;28;20023;-66
2023/06/04 00:13:18;;;;;;;5.88;2.30;;;;;;;13.36;79.37;101841.78;5115047;28;20031;-66
2023/06/04 00:15:44;;;;;;;8.23;1.88;;;;;;;13.25;79.44;101828.81;5114916;28;20027;-66
2023/06/04 00:18:10;;;;;;;9.43;2.47;;;;;;;13.32;79.53;101851.31;5116608;28;20019;-65
2023/06/04 00:20:36;;;;;;;7.63;2.35;;;;;;;13.20;79.91;101833.06;5116727;28;20338;-66
2023/06/04 00:23:02;;;;;;;8.63;2.40;;;;;;;13.24;79.77;101845.16;5114886;28;20039;-66
2023/06/04 00:25:27;;;;;;;7.18;2.00;;;;;;;13.17;79.92;101845.09;5097219;28;20402;-66
2023/06/04 00:27:54;;;;;;;7.22;2.10;;;;;;;13.11;79.71;101846.72;5115917;28;20075;-66
2023/06/04 00:30:19;;;;;;;6.38;2.20;;;;;;;13.05;79.79;101842.06;5098535;28;20031;-66
2023/06/04 00:32:46;;;;;;;9.43;2.38;;;;;;;13.03;79.91;101838.69;5120650;28;20070;-66
2023/06/04 00:35:12;;;;;;;7.60;2.17;;;;;;;13.00;79.97;101840.94;5114659;28;20135;-66
2023/06/04 00:37:38;;;;;;;5.65;2.25;;;;;;;12.98;79.91;101837.59;5115920;28;20158;-66
2023/06/04 00:40:05;;;;;;;7.30;2.17;;;;;;;12.95;80.21;101838.81;5113313;28;20020;-66
2023/06/04 00:42:31;;;;;;;7.32;2.55;;;;;;;12.80;79.98;101821.78;5113315;28;20024;-66
2023/06/04 00:44:57;;;;;;;6.53;1.85;;;;;;;12.89;80.08;101836.88;5114523;28;20043;-66
2023/06/04 00:47:23;;;;;;;4.57;1.90;;;;;;;12.80;79.97;101833.44;5116341;28;20051;-65
2023/06/04 00:49:48;;;;;;;7.78;2.15;;;;;;;12.75;80.18;101832.31;5115017;28;20051;-66
2023/06/04 00:52:15;;;;;;;7.97;2.60;;;;;;;12.65;80.09;101827.22;5121307;28;20024;-66
2023/06/04 00:54:41;;;;;;;9.73;2.20;;;;;;;12.44;80.46;101812.59;5116739;28;20039;-66
2023/06/04 00:57:08;;;;;;;9.15;2.17;;;;;;;12.50;80.39;101827.22;5116370;28;20039;-66
2023/06/04 00:59:36;;;;;;;8.65;2.45;;;;;;;12.41;80.68;101821.06;5114779;28;20031;-66
2023/06/04 01:02:09;;;;;;;6.03;2.00;;;;;;;12.45;80.47;101826.97;5116120;28;20023;-66
2023/06/04 01:04:41;;;;;;;7.53;2.17;;;;;;;12.46;80.46;101825.94;5114896;28;20023;-66
2023/06/04 01:07:09;;;;;;;8.52;2.38;;;;;;;12.44;80.52;101828.81;5115800;28;20057;-66
2023/06/04 01:09:36;;;;;;;9.55;2.58;;;;;;;12.39;80.77;101830.41;5113900;28;20482;-66
2023/06/04 01:12:07;;;;;;;9.25;2.47;;;;;;;12.36;80.98;101830.78;5113853;28;20516;-66
2023/06/04 01:14:33;;;;;;;6.88;2.45;;;;;;;12.33;80.96;101831.97;5114008;28;20631;-66
2023/06/04 01:17:04;;;;;;;9.23;2.50;;;;;;;12.28;81.21;101823.59;5115423;28;20453;-66
2023/06/04 01:19:47;;;;;;;10.10;2.35;;;;;;;12.34;81.03;101833.63;5115119;28;20023;-66
2023/06/04 01:22:35;;;;;;;9.80;2.60;;;;;;;12.29;81.09;101829.84;5114094;28;20024;-66
2023/06/04 01:25:23;;;;;;;10.15;2.53;;;;;;;12.20;81.26;101831.78;5115046;28;20044;-66
2023/06/04 01:27:56;;;;;;;9.05;2.03;;;;;;;12.06;81.06;101814.56;5115287;28;20082;-66
2023/06/04 01:30:28;;;;;;;9.30;2.80;;;;;;;12.09;80.88;101833.06;5113916;28;20044;-66
2023/06/04 01:32:57;;;;;;;6.35;2.30;;;;;;;12.03;81.29;101828.41;5113372;28;20035;-66
2023/06/04 01:35:23;;;;;;;10.35;2.60;;;;;;;11.90;80.89;101818.25;5115682;28;20382;-65
2023/06/04 01:37:49;;;;;;;8.02;2.53;;;;;;;11.83;80.94;101808.34;5115643;28;20023;-66
2023/06/04 01:40:15;;;;;;;7.45;2.33;;;;;;;11.96;81.33;101825.59;5099676;28;20036;-66
2023/06/04 01:42:43;;;;;;;8.43;2.80;;;;;;;11.88;81.53;101817.56;5115076;28;20042;-66
2023/06/04 01:45:10;;;;;;;8.48;2.25;;;;;;;11.97;81.33;101837.22;5077842;28;20478;-66
2023/06/04 01:47:35;;;;;;;9.75;2.35;;;;;;;11.97;81.80;101840.75;5116394;28;20049;-66
2023/06/04 01:50:08;;;;;;;8.68;2.65;;;;;;;11.94;81.56;101822.25;5118576;28;20035;-66
2023/06/04 01:52:37;;;;;;;8.10;2.50;;;;;;;11.73;81.87;101806.75;5120348;28;20062;-66
2023/06/04 01:55:11;;;;;;;9.05;2.55;;;;;;;11.85;81.73;101835.97;5119937;28;20034;-66
2023/06/04 01:57:38;;;;;;;7.47;2.03;;;;;;;11.82;81.69;101839.88;5119536;28;20525;-66
2023/06/04 02:00:07;;;;;;;6.65;2.25;;;;;;;11.82;81.78;101844.41;5117810;28;20096;-66
2023/06/04 02:02:33;;;;;;;8.90;2.65;;;;;;;11.74;81.44;101843.47;5117442;28;20051;-66
2023/06/04 02:04:58;;;;;;;6.15;2.25;;;;;;;11.72;81.58;101841.97;5084021;28;20494;-66
2023/06/04 02:07:23;;;;;;;8.93;1.98;;;;;;;11.67;81.24;101844.38;5118691;28;20591;-66
2023/06/04 02:09:49;;;;;;;8.85;2.50;;;;;;;11.60;81.55;101838.03;5119011;28;20023;-66
2023/06/04 02:12:15;;;;;;;8.60;3.08;;;;;;;11.54;81.31;101842.28;5117758;28;20110;-66
2023/06/04 02:14:41;;;;;;;6.05;2.28;;;;;;;11.50;81.62;101841.81;5118902;28;20397;-66
2023/06/04 02:17:12;;;;;;;7.30;2.15;;;;;;;11.50;81.35;101840.97;5117297;28;20084;-66
2023/06/04 02:19:50;;;;;;;8.57;2.17;;;;;;;11.53;81.41;101843.31;5118852;28;20390;-66
2023/06/04 02:22:19;;;;;;;7.55;2.50;;;;;;;11.55;81.34;101841.25;5118738;28;20388;-66
2023/06/04 02:24:45;;;;;;;11.90;2.45;;;;;;;11.50;80.88;101840.97;5118540;28;20146;-66
2023/06/04 02:27:12;;;;;;;5.60;2.22;;;;;;;11.36;80.79;101825.59;5100021;28;20088;-66
2023/06/04 02:29:41;;;;;;;5.75;2.00;;;;;;;11.44;81.09;101841.69;5118522;27;20498;-66
2023/06/04 02:32:07;;;;;;;6.97;2.08;;;;;;;11.40;80.71;101845.75;5118245;28;20069;-66
2023/06/04 02:34:34;;;;;;;4.32;1.90;;;;;;;11.37;81.08;101848.81;5124732;28;20020;-65
2023/06/04 02:37:00;;;;;;;5.15;2.10;;;;;;;11.37;80.85;101846.13;5129664;28;20031;-66
2023/06/04 02:39:25;;;;;;;5.40;1.92;;;;;;;11.38;80.34;101851.31;5119074;28;20032;-66
2023/06/04 02:41:50;;;;;;;8.75;2.13;;;;;;;11.42;80.31;101858.03;5115600;28;20040;-66
2023/06/04 02:44:16;;;;;;;4.80;2.05;;;;;;;11.44;80.45;101863.25;5116620;28;20042;-66
2023/06/04 02:46:41;;;;;;;7.95;1.95;;;;;;;11.44;80.29;101863.25;5117997;28;20023;-66
2023/06/04 02:49:07;;;;;;;12.55;2.20;;;;;;;11.38;80.19;101856.69;5117647;28;20076;-66
2023/06/04 02:51:32;;;;;;;6.95;2.33;;;;;;;11.45;80.18;101878.38;5116655;28;20046;-66
2023/06/04 02:53:58;;;;;;;6.32;2.00;;;;;;;11.26;79.76;101850.06;5116481;28;20032;-66
2023/06/04 02:56:23;;;;;;;6.93;2.10;;;;;;;11.40;79.69;101870.84;5117881;28;20026;-66
2023/06/04 02:58:55;;;;;;;6.18;1.80;;;;;;;11.43;79.93;101878.59;5117576;28;20041;-66
2023/06/04 03:01:21;;;;;;;11.02;2.45;;;;;;;11.47;80.22;101871.81;5116221;28;20100;-66
2023/06/04 03:03:47;;;;;;;5.63;1.88;;;;;;;11.55;80.25;101876.28;5117573;28;20043;-66
2023/06/04 03:06:14;;;;;;;6.93;2.30;;;;;;;11.63;79.76;101881.66;5116593;28;20042;-66
2023/06/04 03:08:40;;;;;;;5.60;2.05;;;;;;;11.61;79.53;101870.19;5116727;28;20031;-66
2023/06/04 03:11:07;;;;;;;4.72;1.92;;;;;;;11.77;79.32;101893.50;5116018;28;20060;-66
2023/06/04 03:13:32;;;;;;;6.78;1.98;;;;;;;11.86;79.37;101894.31;5114255;27;20048;-66
2023/06/04 03:16:01;;;;;;;6.10;2.10;;;;;;;11.89;78.98;101884.00;5115554;28;20076;-66
2023/06/04 03:18:29;;;;;;;7.32;2.08;;;;;;;12.05;79.04;101880.31;5122065;28;20028;-65
2023/06/04 03:20:55;;;;;;;4.75;1.95;;;;;;;12.30;78.40;101889.03;5131684;28;20035;-67
2023/06/04 03:23:21;;;;;;;5.95;1.98;;;;;;;12.52;78.09;101895.38;5117138;28;20032;-66
2023/06/04 03:25:47;;;;;;;5.00;1.90;;;;;;;12.64;77.64;101901.97;5117848;28;20074;-66
2023/06/04 03:28:13;;;;;;;6.80;2.08;;;;;;;12.56;78.01;101877.78;5117558;28;20442;-66
2023/06/04 03:30:40;;;;;;;6.57;2.15;;;;;;;12.75;78.12;101902.53;5117272;28;20028;-66
2023/06/04 03:33:05;;;;;;;6.80;2.00;;;;;;;12.57;78.25;101875.91;5117172;28;20035;-66
2023/06/04 03:35:31;;;;;;;9.68;2.25;;;;;;;12.69;78.91;101891.47;5117294;28;20019;-66
2023/06/04 03:37:56;;;;;;;6.35;2.30;;;;;;;12.81;78.60;101899.91;5115729;28;20051;-66
2023/06/04 03:40:21;;;;;;;9.07;2.25;;;;;;;12.85;78.48;101895.84;5115768;28;20030;-66
2023/06/04 03:42:47;;;;;;;6.35;2.50;;;;;;;13.13;78.44;101889.75;5115283;28;20027;-66
2023/06/04 03:45:12;;;;;;;8.55;2.95;;;;;;;13.43;78.30;101895.94;5115487;28;20038;-66
2023/06/04 03:47:38;;;;;;;7.40;2.28;;;;;;;13.68;78.09;101898.28;5116928;28;20019;-66
2023/06/04 03:50:05;;;;;;;6.85;1.85;;;;;;;13.63;78.49;101896.16;5117034;28;20035;-66
2023/06/04 03:52:31;;;;;;;7.18;2.60;;;;;;;13.79;77.87;101893.19;5117041;28;20031;-66
2023/06/04 03:54:56;;;;;;;7.18;2.40;;;;;;;14.12;76.81;101900.75;5098339;28;20028;-66
2023/06/04 03:57:22;;;;;;;9.90;2.70;;;;;;;14.24;75.38;101861.31;5115633;28;20027;-66
2023/06/04 03:59:48;;;;;;;5.80;2.00;;;;;;;14.68;74.06;101908.06;5115401;28;20031;-66
2023/06/04 04:02:13;;;;;;;6.90;2.10;;;;;;;15.06;72.64;101904.91;5116485;28;20027;-66
2023/06/04 04:04:38;;;;;;;5.32;1.98;;;;;;;15.58;70.73;101906.13;5123468;28;20012;-66
2023/06/04 04:07:04;;;;;;;5.75;2.10;;;;;;;16.02;68.97;101908.31;5117903;28;20034;-66
2023/06/04 04:09:29;;;;;;;5.53;2.03;;;;;;;16.50;67.36;101908.09;5116359;28;20036;-66
2023/06/04 04:11:55;;;;;;;4.72;1.85;;;;;;;16.59;66.63;101903.28;5114433;28;20062;-67
2023/06/04 04:14:20;;;;;;;6.82;2.10;;;;;;;16.88;66.37;101910.09;5097871;28;20023;-66
2023/06/04 04:16:46;;;;;;;5.85;2.20;;;;;;;17.28;65.48;101907.22;5115247;28;20059;-66
2023/06/04 04:19:12;;;;;;;7.50;2.10;;;;;;;17.51;64.05;101904.78;5114988;28;20031;-66
2023/06/04 04:21:38;;;;;;;6.35;1.80;;;;;;;17.56;63.37;101894.09;5115725;28;20482;-66
2023/06/04 04:24:04;;;;;;;6.75;1.90;;;;;;;17.72;63.14;101894.63;5116246;28;20046;-66
2023/06/04 04:26:29;;;;;;;4.40;1.80;;;;;;;17.97;62.72;101909.13;5098001;28;20027;-66
2023/06/04 04:28:57;;;;;;;4.97;2.00;;;;;;;18.06;62.31;101896.06;5116224;28;20031;-66
2023/06/04 04:31:24;;;;;;;7.45;1.98;;;;;;;18.28;61.86;101889.19;5114980;28;20028;-66
2023/06/04 04:33:51;;;;;;;8.05;2.13;;;;;;;18.75;60.82;101892.28;5116087;28;20020;-66
2023/06/04 04:36:18;;;;;;;5.28;2.00;;;;;;;19.03;59.82;101907.25;5115723;28;20120;-66
2023/06/04 04:38:53;;;;;;;5.80;1.80;;;;;;;19.29;59.10;101905.28;5113267;28;20142;-66
2023/06/04 04:41:20;;;;;;;5.80;1.90;;;;;;;19.73;57.98;101904.03;5113529;28;20023;-67
2023/06/04 04:43:46;;;;;;;5.63;1.92;;;;;;;20.01;56.92;101906.13;5116300;28;20053;-67
2023/06/04 04:46:11;;;;;;;4.72;1.98;;;;;;;20.11;56.25;101902.81;5115049;28;20028;-67
2023/06/04 04:48:38;;;;;;;6.68;1.95;;;;;;;20.46;55.67;101900.06;5116742;28;20028;-67
2023/06/04 04:51:03;;;;;;;6.07;1.85;;;;;;;20.66;54.99;101905.19;5119646;28;20398;-66
2023/06/04 04:53:29;;;;;;;4.43;1.83;;;;;;;20.59;55.05;101894.38;5115397;28;20035;-66
2023/06/04 04:55:55;;;;;;;8.48;2.10;;;;;;;20.79;54.43;101912.31;5114900;28;20083;-67
2023/06/04 04:58:20;;;;;;;6.22;1.88;;;;;;;20.54;54.94;101907.97;5114203;28;20032;-66
2023/06/04 05:00:47;;;;;;;7.25;1.88;;;;;;;20.95;54.40;101906.09;5095770;28;20031;-67
2023/06/04 05:03:13;;;;;;;4.65;1.70;;;;;;;21.49;53.64;101911.28;5114386;28;20050;-66
2023/06/04 05:05:38;;;;;;;6.05;1.88;;;;;;;21.73;53.08;101907.38;5114052;28;20024;-67
2023/06/04 05:08:04;;;;;;;7.13;1.90;;;;;;;21.93;52.62;101909.63;5113938;28;20487;-66
2023/06/04 05:10:30;;;;;;;8.15;2.35;;;;;;;21.98;52.44;101901.47;5116032;28;20089;-67
2023/06/04 05:13:00;;;;;;;6.07;1.70;;;;;;;22.17;52.28;101909.50;5116251;28;20027;-67
2023/06/04 05:15:26;;;;;;;9.85;2.38;;;;;;;21.91;52.60;101911.78;5115962;28;20028;-67
2023/06/04 05:17:53;;;;;;;8.30;1.98;;;;;;;21.90;53.04;101914.78;5116192;28;20047;-67
2023/06/04 05:20:20;;;;;;;7.72;1.98;;;;;;;21.57;52.96;101921.88;5113633;28;20036;-67
2023/06/04 05:22:46;;;;;;;12.18;2.47;;;;;;;21.61;53.04;101923.03;5115214;28;20080;-66
2023/06/04 05:25:11;;;;;;;11.95;2.80;;;;;;;21.37;53.42;101908.63;5118524;28;20050;-67
2023/06/04 05:27:38;;;;;;;9.73;2.30;;;;;;;21.41;53.75;101896.09;5119349;28;20035;-66
2023/06/04 05:30:04;;;;;;;10.68;2.88;;;;;;;21.51;54.07;101922.84;5118023;28;20024;-68
2023/06/04 05:32:31;;;;;;;11.05;2.90;;;;;;;21.12;55.19;101925.31;5119631;28;20020;-68
2023/06/04 05:34:58;;;;;;;9.48;2.38;;;;;;;21.00;55.86;101921.81;5116481;28;20177;-67
2023/06/04 05:37:26;;;;;;;9.02;2.67;;;;;;;20.97;55.90;101919.56;5117531;28;20389;-66
2023/06/04 05:39:52;;;;;;;12.40;2.63;;;;;;;20.91;56.67;101928.72;5117222;28;20031;-67
2023/06/04 05:42:17;;;;;;;12.32;2.67;;;;;;;20.85;56.95;101925.03;5117369;28;20031;-68
2023/06/04 05:44:43;;;;;;;10.38;2.60;;;;;;;20.80;57.16;101911.25;5117197;28;20031;-70
2023/06/04 05:47:08;;;;;;;9.48;2.72;;;;;;;20.96;57.26;101932.41;5117721;28;20728;-68
2023/06/04 05:49:34;;;;;;;9.13;2.67;;;;;;;20.87;57.29;101926.47;5099190;28;20031;-68
2023/06/04 05:52:00;;;;;;;12.95;2.72;;;;;;;20.64;57.88;101929.22;5116250;28;20378;-68
2023/06/04 05:54:26;;;;;;;9.48;2.58;;;;;;;20.77;57.71;101936.38;5114220;28;20023;-66
2023/06/04 05:56:52;;;;;;;9.57;2.67;;;;;;;20.77;58.10;101928.16;5117237;28;20027;-68
2023/06/04 05:59:18;;;;;;;14.63;2.95;;;;;;;20.86;58.08;101941.22;5116281;28;20535;-67
2023/06/04 06:01:43;;;;;;;9.43;2.90;;;;;;;20.79;58.65;101936.94;5099723;28;20065;-68
2023/06/04 06:04:10;;;;;;;12.43;2.88;;;;;;;20.62;59.99;101942.31;5118548;28;20038;-68
2023/06/04 06:06:35;;;;;;;12.65;3.08;;;;;;;20.62;59.67;101951.34;5118469;28;20125;-67
2023/06/04 06:09:01;;;;;;;14.70;3.25;;;;;;;20.40;60.93;101944.78;5116416;28;20032;-68
2023/06/04 06:11:27;;;;;;;9.20;2.50;;;;;;;20.44;60.99;101950.59;5117369;28;20020;-68
2023/06/04 06:13:53;;;;;;;12.30;3.47;;;;;;;20.28;61.87;101950.22;5098508;28;20019;-68
2023/06/04 06:16:18;;;;;;;12.18;3.10;;;;;;;20.21;62.18;101946.78;5115138;28;20028;-68
2023/06/04 06:18:44;;;;;;;13.00;3.42;;;;;;;19.85;63.94;101958.69;5080324;28;20028;-68
2023/06/04 06:21:09;;;;;;;21.02;4.43;;;;;;;19.68;65.16;101962.09;5114830;28;20673;-67
2023/06/04 06:23:35;;;;;;;15.02;3.25;;;;;;;19.48;66.52;101958.75;5115919;28;20077;-67
2023/06/04 06:26:01;;;;;;;17.67;4.03;;;;;;;19.28;67.20;101952.72;5118492;28;20119;-67
2023/06/04 06:28:27;;;;;;;14.82;3.03;;;;;;;19.32;68.01;101965.69;5117400;28;20031;-67
2023/06/04 06:30:53;;;;;;;19.75;3.65;;;;;;;19.56;66.64;101963.88;5100678;28;20161;-67
2023/06/04 06:33:21;;;;;;;15.40;3.65;;;;;;;19.69;66.00;101966.47;5119511;28;20027;-67
2023/06/04 06:35:47;;;;;;;11.95;3.90;;;;;;;19.63;67.27;101961.94;5117047;28;20051;-67
2023/06/04 06:38:13;;;;;;;12.18;3.00;;;;;;;19.74;67.01;101959.50;5116274;28;20035;-67
2023/06/04 06:40:38;;;;;;;14.20;3.00;;;;;;;19.76;66.62;101971.00;5118316;28;20096;-67
2023/06/04 06:43:03;;;;;;;13.05;3.55;;;;;;;19.84;66.46;101968.78;5116468;28;20110;-67
2023/06/04 06:45:29;;;;;;;16.00;3.65;;;;;;;19.68;66.93;101978.47;5115555;28;20535;-67
2023/06/04 06:47:54;;;;;;;11.95;2.90;;;;;;;20.03;65.97;101972.28;5116718;28;20061;-67
2023/06/04 06:50:20;;;;;;;15.45;3.63;;;;;;;19.77;66.71;101970.78;5115874;28;20031;-67
2023/06/04 06:52:45;;;;;;;14.82;3.20;;;;;;;19.94;65.90;101977.25;5098081;28;20501;-67
2023/06/04 06:55:10;;;;;;;14.75;3.95;;;;;;;19.74;66.49;101967.69;5096925;28;20043;-67
2023/06/04 06:57:36;;;;;;;15.00;3.35;;;;;;;19.86;66.62;101966.63;5114665;28;20406;-67
2023/06/04 07:00:02;;;;;;;13.77;3.50;;;;;;;19.76;66.15;101968.28;5095054;28;20024;-67
2023/06/04 07:02:28;;;;;;;15.40;3.38;;;;;;;19.78;66.74;101975.19;5115863;28;20030;-67
2023/06/04 07:04:54;;;;;;;13.50;3.45;;;;;;;19.82;66.87;101967.34;5116299;28;20079;-72
2023/06/04 07:07:20;;;;;;;14.32;3.30;;;;;;;19.68;67.07;101981.19;5118379;28;20441;-75
2023/06/04 07:09:45;;;;;;;11.65;3.10;;;;;;;19.31;68.46;101985.84;5118805;28;20100;-67
2023/06/04 07:12:11;;;;;;;11.70;3.13;;;;;;;19.18;69.52;101984.13;5117262;28;20175;-68
2023/06/04 07:14:36;;;;;;;14.38;3.63;;;;;;;19.09;70.05;101996.38;5098907;28;20031;-67
2023/06/04 07:17:02;;;;;;;12.32;3.50;;;;;;;19.27;69.35;101984.66;5117408;28;20022;-66
2023/06/04 07:19:28;;;;;;;14.90;3.40;;;;;;;19.50;68.20;101992.09;5116648;28;20062;-67
2023/06/04 07:21:54;;;;;;;15.80;3.25;;;;;;;19.23;68.41;101995.16;5116930;28;20034;-68
2023/06/04 07:24:19;;;;;;;10.02;2.95;;;;;;;18.97;70.11;101995.47;5114704;28;20047;-67
2023/06/04 07:26:45;;;;;;;11.95;3.17;;;;;;;19.05;69.84;101997.91;5120576;28;20016;-67
2023/06/04 07:29:11;;;;;;;11.25;3.78;;;;;;;18.96;69.80;101996.53;5118026;28;20024;-67
2023/06/04 07:31:36;;;;;;;17.35;3.78;;;;;;;18.77;69.73;101982.03;5116308;28;20165;-67
2023/06/04 07:34:02;;;;;;;12.77;3.30;;;;;;;18.82;70.01;102001.28;5098042;28;20393;-67
2023/06/04 07:36:28;;;;;;;12.38;3.47;;;;;;;18.84;70.00;102001.91;5081818;28;20382;-67
2023/06/04 07:38:54;;;;;;;12.85;3.88;;;;;;;18.70;69.99;102001.13;5115888;28;20303;-66
2023/06/04 07:41:20;;;;;;;11.15;3.13;;;;;;;18.72;68.86;102004.53;5116234;28;20104;-67
2023/06/04 07:43:46;;;;;;;12.27;3.35;;;;;;;18.85;69.19;102000.84;5099429;28;20030;-66
2023/06/04 07:46:12;;;;;;;12.27;3.53;;;;;;;18.99;68.59;101996.91;5113866;28;20051;-67
2023/06/04 07:48:37;;;;;;;11.80;3.47;;;;;;;19.11;67.75;101990.72;5117220;28;20036;-66
2023/06/04 07:51:04;;;;;;;12.73;3.28;;;;;;;19.22;67.74;101996.22;5116975;28;20453;-66
2023/06/04 07:53:30;;;;;;;12.95;3.17;;;;;;;19.20;67.35;101984.72;5116818;28;20387;-66
2023/06/04 07:55:56;;;;;;;16.25;3.50;;;;;;;19.04;67.62;102006.28;5116261;28;20432;-66
2023/06/04 07:58:22;;;;;;;9.20;3.08;;;;;;;18.89;68.40;102002.06;5115656;28;20031;-67
2023/06/04 08:00:50;;;;;;;12.82;3.70;;;;;;;18.92;68.51;102009.78;5111182;28;20092;-67
2023/06/04 08:03:17;;;;;;;11.15;3.20;;;;;;;19.10;66.85;102005.41;5091905;28;20039;-67
2023/06/04 08:05:52;;;;;;;8.40;2.80;;;;;;;18.85;66.94;101984.47;5068601;28;20207;-66
2023/06/04 08:08:17;;;;;;;12.93;3.22;;;;;;;19.19;66.06;102004.03;5090736;28;20050;-67
2023/06/04 08:10:43;;;;;;;11.73;3.15;;;;;;;19.21;65.48;102002.75;5078009;28;20036;-67
2023/06/04 08:13:11;;;;;;;13.68;3.40;;;;;;;19.18;65.71;102014.13;5102377;28;20053;-67
2023/06/04 08:15:36;;;;;;;8.55;3.10;;;;;;;19.29;65.45;102009.81;5099264;28;20024;-67
2023/06/04 08:18:02;;;;;;;10.82;2.92;;;;;;;19.19;65.32;101990.41;5118493;28;20033;-67
2023/06/04 08:20:27;;;;;;;12.40;3.00;;;;;;;19.21;65.57;102005.50;5117808;28;20286;-67
2023/06/04 08:22:53;;;;;;;9.55;2.88;;;;;;;19.39;64.86;102004.63;5116901;28;20019;-67
2023/06/04 08:25:18;;;;;;;10.57;3.10;;;;;;;19.19;65.33;102006.78;5114508;28;20047;-67
2023/06/04 08:27:44;;;;;;;12.52;3.47;;;;;;;19.12;65.69;102017.75;5112654;28;20041;-67
2023/06/04 08:30:10;;;;;;;13.82;3.17;;;;;;;19.18;67.05;102016.84;5115322;28;20106;-67
2023/06/04 08:32:35;;;;;;;8.85;3.10;;;;;;;19.27;66.68;102005.63;5115262;28;20103;-68
2023/06/04 08:35:01;;;;;;;11.23;3.00;;;;;;;19.10;66.46;102021.75;5116101;28;20028;-67
2023/06/04 08:37:26;;;;;;;15.25;3.05;;;;;;;19.14;66.10;102021.09;5115691;28;20053;-67
2023/06/04 08:39:52;;;;;;;9.70;3.25;;;;;;;19.13;64.99;102013.97;5115072;28;20031;-67
2023/06/04 08:42:44;;;;;;;11.75;2.92;;;;;;;19.18;64.91;102016.84;5113938;28;20056;-66
2023/06/04 08:45:16;;;;;;;8.60;2.38;;;;;;;19.09;65.22;102014.66;5115149;28;20028;-67
2023/06/04 08:47:45;;;;;;;10.93;3.47;;;;;;;19.05;65.04;102017.00;5115018;28;20092;-67
2023/06/04 08:50:12;;;;;;;13.68;3.10;;;;;;;19.06;65.47;102010.47;5115993;28;20038;-67
2023/06/04 08:52:38;;;;;;;10.73;2.92;;;;;;;19.29;65.87;102026.16;5116390;28;20031;-66
2023/06/04 08:55:04;;;;;;;9.90;3.05;;;;;;;19.35;66.11;102025.25;5115953;28;20504;-66
2023/06/04 08:57:33;;;;;;;13.15;3.38;;;;;;;19.40;66.67;102021.84;5118083;28;20024;-66
2023/06/04 08:59:59;;;;;;;13.75;3.17;;;;;;;19.71;66.81;102024.44;5120625;28;20039;-66
2023/06/04 09:02:27;;;;;;;9.48;2.92;;;;;;;19.94;66.61;102031.06;5119882;28;20036;-66
2023/06/04 09:04:53;;;;;;;11.63;3.20;;;;;;;19.97;66.67;102035.22;5120836;28;20089;-67
2023/06/04 09:07:20;;;;;;;11.57;2.90;;;;;;;20.21;66.24;102027.94;5120778;27;20396;-66
2023/06/04 09:09:47;;;;;;;14.13;3.13;;;;;;;20.41;65.43;102023.81;5119947;28;20031;-66
2023/06/04 09:12:21;;;;;;;15.38;3.40;;;;;;;20.23;65.40;102017.59;5119680;28;20030;-66
2023/06/04 09:14:47;;;;;;;;;;;;;;;19.91;66.42;102026.06;5120760;28;20031;-66
2023/06/04 09:17:13;;;;;;;11.65;3.40;;;;;;;19.74;66.98;102027.78;5123181;28;19907;-68
2023/06/04 09:19:38;;;;;;;14.30;3.50;;;;;;;19.57;68.47;102022.91;5104034;28;20398;-66
2023/06/04 09:22:03;;;;;;;14.80;3.83;;;;;;;19.46;70.09;102034.59;5118878;28;20051;-66
2023/06/04 09:24:43;;;;;;;12.80;3.10;;;;;;;19.55;68.90;102027.75;5120259;28;20397;-66
2023/06/04 09:27:12;;;;;;;15.43;3.28;;;;;;;19.50;68.50;102030.31;5118757;28;20038;-67
2023/06/04 09:29:39;;;;;;;13.15;3.72;;;;;;;19.75;67.93;102029.44;5120105;28;20050;-66
2023/06/04 09:32:05;;;;;;;17.73;3.80;;;;;;;19.88;68.04;102023.78;5120148;28;20031;-66
2023/06/04 09:34:30;;;;;;;13.63;3.53;;;;;;;19.84;68.99;102026.16;5116847;28;20019;-66
2023/06/04 09:36:57;;;;;;;14.73;3.80;;;;;;;19.86;68.75;102029.47;5116690;28;20016;-66
2023/06/04 09:39:23;;;;;;;15.30;3.67;;;;;;;19.93;68.90;102032.09;5116395;28;20104;-67
2023/06/04 09:42:02;;;;;;;12.23;3.20;;;;;;;19.87;69.01;102027.59;5116641;28;20032;-66
2023/06/04 09:44:30;;;;;;;18.00;3.83;;;;;;;19.85;68.96;102008.69;5118503;28;20462;-66
2023/06/04 09:46:57;;;;;;;14.38;3.15;;;;;;;20.07;68.57;102030.88;5099806;28;20045;-66
2023/06/04 09:49:22;;;;;;;15.73;3.20;;;;;;;20.12;68.11;102021.97;5119680;28;20046;-67
2023/06/04 09:51:48;;;;;;;11.82;2.95;;;;;;;20.24;67.93;102022.00;5118521;28;20506;-66
2023/06/04 09:54:14;;;;;;;14.45;3.17;;;;;;;20.10;68.49;102033.16;5119771;28;20090;-66
2023/06/04 09:56:41;;;;;;;11.80;3.35;;;;;;;20.32;68.31;102027.13;5119937;28;20027;-66
2023/06/04 09:59:09;;;;;;;14.00;3.83;;;;;;;20.33;68.13;102026.03;5119540;28;20032;-66
2023/06/04 10:01:40;;;;;;;14.30;4.20;;;;;;;20.55;67.05;102027.19;5119981;28;20024;-66
2023/06/04 10:04:08;;;;;;;12.38;3.17;;;;;;;20.50;66.97;102021.59;5119651;28;20397;-66
2023/06/04 10:06:35;;;;;;;14.48;3.42;;;;;;;20.44;67.03;102017.06;5117934;28;20051;-67
2023/06/04 10:09:08;;;;;;;18.38;4.03;;;;;;;20.41;66.99;102017.53;5116316;28;20063;-66
2023/06/04 10:11:37;;;;;;;14.07;3.20;;;;;;;20.20;67.67;102007.97;5118432;27;20028;-66
2023/06/04 10:14:07;;;;;;;12.95;3.25;;;;;;;20.07;68.47;102005.44;5119403;28;20460;-67
2023/06/04 10:16:33;;;;;;;12.98;3.08;;;;;;;20.03;68.84;102020.63;5105240;28;20100;-67
2023/06/04 10:19:00;;;;;;;17.30;3.83;;;;;;;19.78;70.33;102034.44;5121479;28;20038;-72
2023/06/04 10:21:26;;;;;;;16.92;3.83;;;;;;;19.58;71.40;102013.66;5102527;28;20027;-66
2023/06/04 10:23:52;;;;;;;12.00;3.50;;;;;;;19.70;71.16;102039.16;5117870;28;20047;-67
2023/06/04 10:26:18;;;;;;;14.15;2.97;;;;;;;20.03;70.17;102037.00;5117485;28;20035;-66
2023/06/04 10:28:43;;;;;;;11.05;3.20;;;;;;;20.13;70.01;102035.41;5118055;28;20023;-66
2023/06/04 10:31:10;;;;;;;10.35;2.80;;;;;;;20.17;69.64;102033.03;5119129;28;20030;-66
2023/06/04 10:33:36;;;;;;;15.18;3.90;;;;;;;20.26;68.51;102036.25;5119229;27;20023;-67
2023/06/04 10:36:17;;;;;;;14.73;3.58;;;;;;;20.30;68.10;102032.84;5117706;28;20083;-66
2023/06/04 10:38:47;;;;;;;14.35;3.08;;;;;;;20.55;68.14;102029.09;5118919;28;20019;-67
2023/06/04 10:41:16;;;;;;;11.10;2.65;;;;;;;20.81;68.11;102044.22;5119149;28;20472;-66
2023/06/04 10:43:45;;;;;;;11.93;3.35;;;;;;;21.09;66.98;102041.63;5117515;28;20019;-66
2023/06/04 10:46:14;;;;;;;15.98;3.33;;;;;;;21.02;67.30;102042.78;5117114;28;20027;-66
2023/06/04 10:48:53;;;;;;;14.13;3.65;;;;;;;20.73;68.07;102042.69;5117090;28;20079;-66
2023/06/04 10:51:34;;;;;;;11.77;3.33;;;;;;;20.58;68.20;102043.13;5118807;28;20015;-66
2023/06/04 10:54:02;;;;;;;10.85;3.28;;;;;;;20.87;67.50;102048.75;5118513;28;20027;-71
2023/06/04 10:56:33;;;;;;;15.00;3.28;;;;;;;20.95;66.66;102044.81;5121956;28;20498;-66
2023/06/04 10:58:59;;;;;;;10.88;3.20;;;;;;;20.69;67.49;102043.38;5117105;28;20404;-66
2023/06/04 11:01:29;;;;;;;13.13;3.28;;;;;;;20.49;68.89;102049.97;5117604;28;20118;-66
2023/06/04 11:03:55;;;;;;;14.38;3.60;;;;;;;20.40;68.53;102054.13;5118178;27;20482;-66
2023/06/04 11:06:22;;;;;;;15.10;2.95;;;;;;;20.33;69.42;102064.31;5116553;28;20093;-67
2023/06/04 11:08:47;;;;;;;13.95;3.63;;;;;;;20.18;70.78;102054.66;5118537;28;20031;-66
2023/06/04 11:11:14;;;;;;;10.95;3.13;;;;;;;20.46;70.18;102058.66;5120957;27;20505;-71
2023/06/04 11:13:41;;;;;;;11.30;3.47;;;;;;;20.50;69.99;102054.41;5121263;28;20024;-66
2023/06/04 11:16:20;;;;;;;15.43;3.72;;;;;;;20.77;69.00;102051.25;5118363;27;20019;-66
2023/06/04 11:18:56;;;;;;;13.48;3.25;;;;;;;21.00;68.05;102053.16;5118282;28;20028;-66
2023/06/04 11:21:22;;;;;;;9.98;3.17;;;;;;;20.99;67.68;102051.47;5117812;27;20050;-66